sensor_id;sensor_type;location;lat;lon;timestamp;P1;durP1;ratioP1;P2;durP2;ratioP2
8131;SDS011;4107;49.212;9.198;2022-07-29T00:00:36;7.03;;;3.57;;
8131;SDS011;4107;49.212;9.198;2022-07-29T00:03:02;4.33;;;3.93;;
8131;SDS011;4107;49.212;9.198;2022-07-29T00:05:28;4.13;;;3.73;;
8131;SDS011;4107;49.212;9.198;2022-07-29T00:07:53;4.67;;;3.67;;
8131;SDS011;4107;49.212;9.198;2022-07-29T00:10:19;4.13;;;3.73;;
8131;SDS011;4107;49.212;9.198;2022-07-29T00:12:45;3.93;;;3.60;;
8131;SDS011;4107;49.212;9.198;2022-07-29T00:15:11;4.37;;;3.73;;
8131;SDS011;4107;49.212;9.198;2022-07-29T00:17:37;4.47;;;4.03;;
8131;SDS011;4107;49.212;9.198;2022-07-29T00:20:03;4.93;;;3.97;;
8131;SDS011;4107;49.212;9.198;2022-07-29T00:22:29;5.47;;;3.80;;
8131;SDS011;4107;49.212;9.198;2022-07-29T00:24:55;6.33;;;4.00;;
8131;SDS011;4107;49.212;9.198;2022-07-29T00:27:20;4.33;;;3.93;;
8131;SDS011;4107;49.212;9.198;2022-07-29T00:29:46;4.30;;;3.90;;
8131;SDS011;4107;49.212;9.198;2022-07-29T00:32:12;4.17;;;3.87;;
8131;SDS011;4107;49.212;9.198;2022-07-29T00:34:38;5.03;;;4.23;;
8131;SDS011;4107;49.212;9.198;2022-07-29T00:37:22;5.33;;;3.83;;
8131;SDS011;4107;49.212;9.198;2022-07-29T00:39:48;7.33;;;4.17;;
8131;SDS011;4107;49.212;9.198;2022-07-29T00:42:13;8.23;;;4.37;;
8131;SDS011;4107;49.212;9.198;2022-07-29T00:44:39;6.07;;;4.17;;
8131;SDS011;4107;49.212;9.198;2022-07-29T00:47:06;5.37;;;4.20;;
8131;SDS011;4107;49.212;9.198;2022-07-29T00:49:33;5.80;;;4.00;;
8131;SDS011;4107;49.212;9.198;2022-07-29T00:52:03;4.37;;;3.97;;
8131;SDS011;4107;49.212;9.198;2022-07-29T00:54:32;4.87;;;4.30;;
8131;SDS011;4107;49.212;9.198;2022-07-29T00:56:58;4.40;;;4.00;;
8131;SDS011;4107;49.212;9.198;2022-07-29T00:59:25;4.10;;;3.77;;
8131;SDS011;4107;49.212;9.198;2022-07-29T01:01:51;4.50;;;4.00;;
8131;SDS011;4107;49.212;9.198;2022-07-29T01:04:17;6.03;;;4.00;;
8131;SDS011;4107;49.212;9.198;2022-07-29T01:06:43;4.33;;;3.93;;
8131;SDS011;4107;49.212;9.198;2022-07-29T01:09:09;4.30;;;3.90;;
8131;SDS011;4107;49.212;9.198;2022-07-29T01:11:36;6.60;;;3.77;;
8131;SDS011;4107;49.212;9.198;2022-07-29T01:14:02;4.90;;;4.40;;
8131;SDS011;4107;49.212;9.198;2022-07-29T01:16:37;5.00;;;4.30;;
8131;SDS011;4107;49.212;9.198;2022-07-29T01:19:18;5.33;;;3.97;;
8131;SDS011;4107;49.212;9.198;2022-07-29T01:22:13;6.30;;;4.40;;
8131;SDS011;4107;49.212;9.198;2022-07-29T01:28:17;4.30;;;3.90;;
8131;SDS011;4107;49.212;9.198;2022-07-29T01:31:01;5.53;;;4.57;;
8131;SDS011;4107;49.212;9.198;2022-07-29T01:33:29;5.13;;;4.63;;
8131;SDS011;4107;49.212;9.198;2022-07-29T01:36:22;4.33;;;3.93;;
8131;SDS011;4107;49.212;9.198;2022-07-29T01:38:58;4.60;;;4.03;;
8131;SDS011;4107;49.212;9.198;2022-07-29T01:41:31;4.73;;;4.13;;
8131;SDS011;4107;49.212;9.198;2022-07-29T01:44:01;4.40;;;4.00;;
8131;SDS011;4107;49.212;9.198;2022-07-29T01:46:35;4.53;;;4.13;;
8131;SDS011;4107;49.212;9.198;2022-07-29T01:51:57;5.43;;;4.27;;
8131;SDS011;4107;49.212;9.198;2022-07-29T01:57:11;5.20;;;4.20;;
8131;SDS011;4107;49.212;9.198;2022-07-29T01:59:40;5.17;;;4.40;;
8131;SDS011;4107;49.212;9.198;2022-07-29T02:02:08;5.93;;;4.80;;
8131;SDS011;4107;49.212;9.198;2022-07-29T02:04:36;5.53;;;4.40;;
8131;SDS011;4107;49.212;9.198;2022-07-29T02:07:04;7.63;;;4.27;;
8131;SDS011;4107;49.212;9.198;2022-07-29T02:09:32;5.10;;;4.50;;
8131;SDS011;4107;49.212;9.198;2022-07-29T02:12:00;8.30;;;4.67;;
8131;SDS011;4107;49.212;9.198;2022-07-29T02:14:29;4.90;;;4.40;;
8131;SDS011;4107;49.212;9.198;2022-07-29T02:16:58;5.50;;;4.30;;
8131;SDS011;4107;49.212;9.198;2022-07-29T02:19:26;6.20;;;4.47;;
8131;SDS011;4107;49.212;9.198;2022-07-29T02:21:54;5.50;;;4.27;;
8131;SDS011;4107;49.212;9.198;2022-07-29T02:24:22;5.77;;;4.73;;
8131;SDS011;4107;49.212;9.198;2022-07-29T02:26:49;5.50;;;4.43;;
8131;SDS011;4107;49.212;9.198;2022-07-29T02:29:18;5.10;;;4.60;;
8131;SDS011;4107;49.212;9.198;2022-07-29T02:31:47;6.23;;;4.37;;
8131;SDS011;4107;49.212;9.198;2022-07-29T02:34:15;4.73;;;4.23;;
8131;SDS011;4107;49.212;9.198;2022-07-29T02:36:43;5.80;;;4.60;;
8131;SDS011;4107;49.212;9.198;2022-07-29T02:39:10;4.30;;;4.00;;
8131;SDS011;4107;49.212;9.198;2022-07-29T02:44:13;6.10;;;4.30;;
8131;SDS011;4107;49.212;9.198;2022-07-29T02:46:45;5.40;;;4.40;;
8131;SDS011;4107;49.212;9.198;2022-07-29T02:51:55;5.00;;;4.20;;
8131;SDS011;4107;49.212;9.198;2022-07-29T02:54:46;5.83;;;4.23;;
8131;SDS011;4107;49.212;9.198;2022-07-29T02:57:22;4.87;;;4.30;;
8131;SDS011;4107;49.212;9.198;2022-07-29T03:00:05;6.70;;;4.30;;
8131;SDS011;4107;49.212;9.198;2022-07-29T03:02:34;4.20;;;3.50;;
8131;SDS011;4107;49.212;9.198;2022-07-29T03:05:03;3.97;;;3.53;;
8131;SDS011;4107;49.212;9.198;2022-07-29T03:07:31;5.30;;;4.30;;
8131;SDS011;4107;49.212;9.198;2022-07-29T03:09:58;4.13;;;3.60;;
8131;SDS011;4107;49.212;9.198;2022-07-29T03:12:24;7.23;;;4.13;;
8131;SDS011;4107;49.212;9.198;2022-07-29T03:14:52;7.60;;;4.13;;
8131;SDS011;4107;49.212;9.198;2022-07-29T03:17:18;6.73;;;4.10;;
8131;SDS011;4107;49.212;9.198;2022-07-29T03:19:45;4.60;;;4.20;;
8131;SDS011;4107;49.212;9.198;2022-07-29T03:22:11;5.83;;;4.03;;
8131;SDS011;4107;49.212;9.198;2022-07-29T03:24:37;7.30;;;4.17;;
8131;SDS011;4107;49.212;9.198;2022-07-29T03:27:03;6.90;;;4.03;;
8131;SDS011;4107;49.212;9.198;2022-07-29T03:29:29;6.90;;;4.70;;
8131;SDS011;4107;49.212;9.198;2022-07-29T03:31:55;5.30;;;4.50;;
8131;SDS011;4107;49.212;9.198;2022-07-29T03:34:21;4.50;;;4.10;;
8131;SDS011;4107;49.212;9.198;2022-07-29T03:36:47;6.53;;;4.80;;
8131;SDS011;4107;49.212;9.198;2022-07-29T03:39:15;6.60;;;5.00;;
8131;SDS011;4107;49.212;9.198;2022-07-29T03:41:44;5.43;;;4.60;;
8131;SDS011;4107;49.212;9.198;2022-07-29T03:44:12;5.13;;;4.50;;
8131;SDS011;4107;49.212;9.198;2022-07-29T03:46:40;6.57;;;4.90;;
8131;SDS011;4107;49.212;9.198;2022-07-29T03:49:08;5.00;;;4.23;;
8131;SDS011;4107;49.212;9.198;2022-07-29T03:51:35;5.20;;;4.33;;
8131;SDS011;4107;49.212;9.198;2022-07-29T03:54:02;6.23;;;4.77;;
8131;SDS011;4107;49.212;9.198;2022-07-29T03:56:29;6.03;;;4.43;;
8131;SDS011;4107;49.212;9.198;2022-07-29T03:58:57;4.57;;;4.17;;
8131;SDS011;4107;49.212;9.198;2022-07-29T04:01:24;5.17;;;4.57;;
8131;SDS011;4107;49.212;9.198;2022-07-29T04:03:51;4.57;;;4.17;;
8131;SDS011;4107;49.212;9.198;2022-07-29T04:06:17;6.17;;;4.10;;
8131;SDS011;4107;49.212;9.198;2022-07-29T04:08:42;6.43;;;4.23;;
8131;SDS011;4107;49.212;9.198;2022-07-29T04:11:08;4.87;;;4.23;;
8131;SDS011;4107;49.212;9.198;2022-07-29T04:13:34;5.53;;;4.10;;
8131;SDS011;4107;49.212;9.198;2022-07-29T04:15:59;4.53;;;3.90;;
8131;SDS011;4107;49.212;9.198;2022-07-29T04:18:26;4.20;;;3.90;;
8131;SDS011;4107;49.212;9.198;2022-07-29T04:20:51;5.67;;;4.30;;
8131;SDS011;4107;49.212;9.198;2022-07-29T04:23:17;5.43;;;4.60;;
8131;SDS011;4107;49.212;9.198;2022-07-29T04:25:43;4.63;;;4.20;;
8131;SDS011;4107;49.212;9.198;2022-07-29T04:28:09;5.63;;;4.43;;
8131;SDS011;4107;49.212;9.198;2022-07-29T04:30:35;7.10;;;4.63;;
8131;SDS011;4107;49.212;9.198;2022-07-29T04:33:02;5.10;;;4.60;;
8131;SDS011;4107;49.212;9.198;2022-07-29T04:35:33;5.47;;;4.80;;
8131;SDS011;4107;49.212;9.198;2022-07-29T04:37:59;5.93;;;4.60;;
8131;SDS011;4107;49.212;9.198;2022-07-29T04:40:25;6.50;;;4.43;;
8131;SDS011;4107;49.212;9.198;2022-07-29T04:42:51;5.67;;;5.17;;
8131;SDS011;4107;49.212;9.198;2022-07-29T04:45:16;9.20;;;4.93;;
8131;SDS011;4107;49.212;9.198;2022-07-29T04:47:42;5.87;;;5.27;;
8131;SDS011;4107;49.212;9.198;2022-07-29T04:50:08;5.67;;;5.03;;
8131;SDS011;4107;49.212;9.198;2022-07-29T04:52:34;7.10;;;5.13;;
8131;SDS011;4107;49.212;9.198;2022-07-29T04:55:00;7.53;;;5.00;;
8131;SDS011;4107;49.212;9.198;2022-07-29T04:57:26;5.03;;;4.53;;
8131;SDS011;4107;49.212;9.198;2022-07-29T04:59:51;7.80;;;4.80;;
8131;SDS011;4107;49.212;9.198;2022-07-29T05:02:17;9.00;;;5.50;;
8131;SDS011;4107;49.212;9.198;2022-07-29T05:04:43;5.93;;;4.70;;
8131;SDS011;4107;49.212;9.198;2022-07-29T05:07:08;6.43;;;5.07;;
8131;SDS011;4107;49.212;9.198;2022-07-29T05:09:34;6.27;;;4.90;;
8131;SDS011;4107;49.212;9.198;2022-07-29T05:11:59;5.63;;;4.57;;
8131;SDS011;4107;49.212;9.198;2022-07-29T05:14:25;8.03;;;4.57;;
8131;SDS011;4107;49.212;9.198;2022-07-29T05:16:51;6.10;;;4.60;;
8131;SDS011;4107;49.212;9.198;2022-07-29T05:19:18;6.33;;;4.63;;
8131;SDS011;4107;49.212;9.198;2022-07-29T05:21:46;6.40;;;4.40;;
8131;SDS011;4107;49.212;9.198;2022-07-29T05:24:12;4.97;;;4.47;;
8131;SDS011;4107;49.212;9.198;2022-07-29T05:26:38;5.80;;;4.17;;
8131;SDS011;4107;49.212;9.198;2022-07-29T05:29:04;6.17;;;4.60;;
8131;SDS011;4107;49.212;9.198;2022-07-29T05:31:30;5.93;;;4.50;;
8131;SDS011;4107;49.212;9.198;2022-07-29T05:33:55;5.70;;;4.40;;
8131;SDS011;4107;49.212;9.198;2022-07-29T05:36:21;8.67;;;4.40;;
8131;SDS011;4107;49.212;9.198;2022-07-29T05:38:46;7.00;;;4.50;;
8131;SDS011;4107;49.212;9.198;2022-07-29T05:41:12;7.70;;;4.53;;
8131;SDS011;4107;49.212;9.198;2022-07-29T05:43:38;5.77;;;4.27;;
8131;SDS011;4107;49.212;9.198;2022-07-29T05:46:03;6.57;;;4.50;;
8131;SDS011;4107;49.212;9.198;2022-07-29T05:48:29;6.67;;;4.90;;
8131;SDS011;4107;49.212;9.198;2022-07-29T05:50:54;5.47;;;4.80;;
8131;SDS011;4107;49.212;9.198;2022-07-29T05:53:20;5.00;;;4.50;;
8131;SDS011;4107;49.212;9.198;2022-07-29T05:55:46;5.73;;;4.43;;
8131;SDS011;4107;49.212;9.198;2022-07-29T05:58:12;5.73;;;4.30;;
8131;SDS011;4107;49.212;9.198;2022-07-29T06:00:37;5.43;;;4.33;;
8131;SDS011;4107;49.212;9.198;2022-07-29T06:03:03;8.33;;;4.40;;
8131;SDS011;4107;49.212;9.198;2022-07-29T06:05:29;8.13;;;4.80;;
8131;SDS011;4107;49.212;9.198;2022-07-29T06:07:54;5.93;;;4.60;;
8131;SDS011;4107;49.212;9.198;2022-07-29T06:10:20;6.67;;;4.70;;
8131;SDS011;4107;49.212;9.198;2022-07-29T06:12:45;4.83;;;4.33;;
8131;SDS011;4107;49.212;9.198;2022-07-29T06:15:11;5.13;;;3.83;;
8131;SDS011;4107;49.212;9.198;2022-07-29T06:17:37;6.30;;;4.50;;
8131;SDS011;4107;49.212;9.198;2022-07-29T06:20:03;4.40;;;4.03;;
8131;SDS011;4107;49.212;9.198;2022-07-29T06:22:28;5.80;;;3.90;;
8131;SDS011;4107;49.212;9.198;2022-07-29T06:24:54;6.23;;;4.43;;
8131;SDS011;4107;49.212;9.198;2022-07-29T06:27:20;5.93;;;4.30;;
8131;SDS011;4107;49.212;9.198;2022-07-29T06:29:46;4.87;;;4.47;;
8131;SDS011;4107;49.212;9.198;2022-07-29T06:32:11;5.00;;;4.30;;
8131;SDS011;4107;49.212;9.198;2022-07-29T06:34:37;6.03;;;4.40;;
8131;SDS011;4107;49.212;9.198;2022-07-29T06:37:08;4.90;;;4.00;;
8131;SDS011;4107;49.212;9.198;2022-07-29T06:39:34;6.53;;;4.90;;
8131;SDS011;4107;49.212;9.198;2022-07-29T06:42:01;5.53;;;4.30;;
8131;SDS011;4107;49.212;9.198;2022-07-29T06:44:27;7.00;;;4.00;;
8131;SDS011;4107;49.212;9.198;2022-07-29T06:46:53;7.60;;;4.43;;
8131;SDS011;4107;49.212;9.198;2022-07-29T06:49:19;4.90;;;4.43;;
8131;SDS011;4107;49.212;9.198;2022-07-29T06:51:45;6.77;;;4.27;;
8131;SDS011;4107;49.212;9.198;2022-07-29T06:54:11;6.87;;;4.47;;
8131;SDS011;4107;49.212;9.198;2022-07-29T06:56:37;8.15;;;3.83;;
8131;SDS011;4107;49.212;9.198;2022-07-29T06:59:03;6.50;;;4.22;;
8131;SDS011;4107;49.212;9.198;2022-07-29T07:01:29;5.97;;;4.50;;
8131;SDS011;4107;49.212;9.198;2022-07-29T07:03:55;8.27;;;3.80;;
8131;SDS011;4107;49.212;9.198;2022-07-29T07:06:21;5.78;;;3.78;;
8131;SDS011;4107;49.212;9.198;2022-07-29T07:08:47;6.43;;;4.03;;
8131;SDS011;4107;49.212;9.198;2022-07-29T07:11:12;6.65;;;4.22;;
8131;SDS011;4107;49.212;9.198;2022-07-29T07:13:38;9.15;;;4.10;;
8131;SDS011;4107;49.212;9.198;2022-07-29T07:16:04;4.50;;;4.10;;
8131;SDS011;4107;49.212;9.198;2022-07-29T07:18:29;5.40;;;3.80;;
8131;SDS011;4107;49.212;9.198;2022-07-29T07:20:56;5.38;;;3.88;;
8131;SDS011;4107;49.212;9.198;2022-07-29T07:23:22;5.57;;;3.80;;
8131;SDS011;4107;49.212;9.198;2022-07-29T07:25:47;4.70;;;3.60;;
8131;SDS011;4107;49.212;9.198;2022-07-29T07:28:13;6.85;;;3.72;;
8131;SDS011;4107;49.212;9.198;2022-07-29T07:30:39;6.18;;;3.72;;
8131;SDS011;4107;49.212;9.198;2022-07-29T07:33:04;4.30;;;3.85;;
8131;SDS011;4107;49.212;9.198;2022-07-29T07:35:30;5.45;;;3.63;;
8131;SDS011;4107;49.212;9.198;2022-07-29T07:37:56;6.50;;;3.50;;
8131;SDS011;4107;49.212;9.198;2022-07-29T07:40:22;5.95;;;4.15;;
8131;SDS011;4107;49.212;9.198;2022-07-29T07:42:48;5.80;;;3.53;;
8131;SDS011;4107;49.212;9.198;2022-07-29T07:45:14;6.75;;;3.65;;
8131;SDS011;4107;49.212;9.198;2022-07-29T07:47:40;5.10;;;3.97;;
8131;SDS011;4107;49.212;9.198;2022-07-29T07:50:06;5.40;;;3.67;;
8131;SDS011;4107;49.212;9.198;2022-07-29T07:52:33;6.70;;;3.63;;
8131;SDS011;4107;49.212;9.198;2022-07-29T07:54:59;4.93;;;3.40;;
8131;SDS011;4107;49.212;9.198;2022-07-29T07:57:25;5.50;;;3.22;;
8131;SDS011;4107;49.212;9.198;2022-07-29T07:59:50;7.13;;;3.10;;
8131;SDS011;4107;49.212;9.198;2022-07-29T08:02:16;4.80;;;3.13;;
8131;SDS011;4107;49.212;9.198;2022-07-29T08:04:42;3.80;;;3.20;;
8131;SDS011;4107;49.212;9.198;2022-07-29T08:07:08;4.18;;;3.15;;
8131;SDS011;4107;49.212;9.198;2022-07-29T08:09:35;5.20;;;3.38;;
8131;SDS011;4107;49.212;9.198;2022-07-29T08:12:01;6.40;;;3.53;;
8131;SDS011;4107;49.212;9.198;2022-07-29T08:14:29;3.60;;;3.08;;
8131;SDS011;4107;49.212;9.198;2022-07-29T08:16:55;4.63;;;3.25;;
8131;SDS011;4107;49.212;9.198;2022-07-29T08:19:21;4.55;;;3.53;;
8131;SDS011;4107;49.212;9.198;2022-07-29T08:21:46;3.97;;;3.17;;
8131;SDS011;4107;49.212;9.198;2022-07-29T08:24:12;3.75;;;3.10;;
8131;SDS011;4107;49.212;9.198;2022-07-29T08:26:56;3.50;;;3.20;;
8131;SDS011;4107;49.212;9.198;2022-07-29T08:29:22;4.90;;;3.30;;
8131;SDS011;4107;49.212;9.198;2022-07-29T08:31:48;3.92;;;3.50;;
8131;SDS011;4107;49.212;9.198;2022-07-29T08:34:13;4.68;;;3.40;;
8131;SDS011;4107;49.212;9.198;2022-07-29T08:36:39;4.18;;;3.10;;
8131;SDS011;4107;49.212;9.198;2022-07-29T08:39:04;4.18;;;3.28;;
8131;SDS011;4107;49.212;9.198;2022-07-29T08:41:30;4.90;;;3.28;;
8131;SDS011;4107;49.212;9.198;2022-07-29T08:43:56;4.68;;;3.20;;
8131;SDS011;4107;49.212;9.198;2022-07-29T08:46:22;5.07;;;3.50;;
8131;SDS011;4107;49.212;9.198;2022-07-29T08:48:48;3.80;;;3.50;;
8131;SDS011;4107;49.212;9.198;2022-07-29T08:51:15;5.90;;;3.50;;
8131;SDS011;4107;49.212;9.198;2022-07-29T08:53:42;4.43;;;3.72;;
8131;SDS011;4107;49.212;9.198;2022-07-29T08:56:12;3.90;;;3.60;;
8131;SDS011;4107;49.212;9.198;2022-07-29T08:58:39;3.28;;;3.08;;
8131;SDS011;4107;49.212;9.198;2022-07-29T09:01:06;5.95;;;3.78;;
8131;SDS011;4107;49.212;9.198;2022-07-29T09:03:34;3.60;;;3.30;;
8131;SDS011;4107;49.212;9.198;2022-07-29T09:06:02;4.10;;;3.33;;
8131;SDS011;4107;49.212;9.198;2022-07-29T09:08:29;4.05;;;3.33;;
8131;SDS011;4107;49.212;9.198;2022-07-29T09:11:00;5.03;;;3.45;;
8131;SDS011;4107;49.212;9.198;2022-07-29T09:13:28;5.03;;;3.53;;
8131;SDS011;4107;49.212;9.198;2022-07-29T09:15:53;5.90;;;3.47;;
8131;SDS011;4107;49.212;9.198;2022-07-29T09:18:35;5.22;;;3.40;;
8131;SDS011;4107;49.212;9.198;2022-07-29T09:21:06;4.20;;;3.10;;
8131;SDS011;4107;49.212;9.198;2022-07-29T09:24:07;3.88;;;2.97;;
8131;SDS011;4107;49.212;9.198;2022-07-29T09:26:36;3.80;;;3.03;;
8131;SDS011;4107;49.212;9.198;2022-07-29T09:29:10;5.03;;;3.58;;
8131;SDS011;4107;49.212;9.198;2022-07-29T09:31:38;3.88;;;3.45;;
8131;SDS011;4107;49.212;9.198;2022-07-29T09:34:05;4.28;;;3.10;;
8131;SDS011;4107;49.212;9.198;2022-07-29T09:36:46;6.35;;;3.60;;
8131;SDS011;4107;49.212;9.198;2022-07-29T09:39:14;3.30;;;3.00;;
8131;SDS011;4107;49.212;9.198;2022-07-29T09:41:45;5.00;;;3.28;;
8131;SDS011;4107;49.212;9.198;2022-07-29T09:44:12;6.03;;;3.30;;
8131;SDS011;4107;49.212;9.198;2022-07-29T09:46:38;4.40;;;3.75;;
8131;SDS011;4107;49.212;9.198;2022-07-29T09:49:08;5.05;;;3.65;;
8131;SDS011;4107;49.212;9.198;2022-07-29T09:51:35;5.25;;;3.67;;
8131;SDS011;4107;49.212;9.198;2022-07-29T09:54:01;5.20;;;3.63;;
8131;SDS011;4107;49.212;9.198;2022-07-29T09:56:45;4.05;;;3.22;;
8131;SDS011;4107;49.212;9.198;2022-07-29T09:59:12;3.70;;;3.40;;
8131;SDS011;4107;49.212;9.198;2022-07-29T10:01:39;4.20;;;3.40;;
8131;SDS011;4107;49.212;9.198;2022-07-29T10:04:04;4.20;;;3.75;;
8131;SDS011;4107;49.212;9.198;2022-07-29T10:06:30;4.55;;;3.60;;
8131;SDS011;4107;49.212;9.198;2022-07-29T10:09:09;3.92;;;3.40;;
8131;SDS011;4107;49.212;9.198;2022-07-29T10:11:36;6.50;;;3.83;;
8131;SDS011;4107;49.212;9.198;2022-07-29T10:14:02;5.63;;;3.53;;
8131;SDS011;4107;49.212;9.198;2022-07-29T10:16:29;5.43;;;3.75;;
8131;SDS011;4107;49.212;9.198;2022-07-29T10:18:58;3.50;;;3.20;;
8131;SDS011;4107;49.212;9.198;2022-07-29T10:21:27;4.03;;;3.53;;
8131;SDS011;4107;49.212;9.198;2022-07-29T10:23:54;4.63;;;3.50;;
8131;SDS011;4107;49.212;9.198;2022-07-29T10:26:22;4.93;;;3.60;;
8131;SDS011;4107;49.212;9.198;2022-07-29T10:28:48;5.22;;;3.58;;
8131;SDS011;4107;49.212;9.198;2022-07-29T10:31:16;4.25;;;3.63;;
8131;SDS011;4107;49.212;9.198;2022-07-29T10:42:52;5.30;;;3.65;;
8131;SDS011;4107;49.212;9.198;2022-07-29T10:45:20;7.68;;;4.05;;
8131;SDS011;4107;49.212;9.198;2022-07-29T10:47:46;5.65;;;3.92;;
8131;SDS011;4107;49.212;9.198;2022-07-29T10:50:11;4.57;;;3.85;;
8131;SDS011;4107;49.212;9.198;2022-07-29T10:55:36;8.02;;;4.35;;
8131;SDS011;4107;49.212;9.198;2022-07-29T10:58:16;7.03;;;4.65;;
8131;SDS011;4107;49.212;9.198;2022-07-29T11:00:48;4.50;;;4.10;;
8131;SDS011;4107;49.212;9.198;2022-07-29T11:06:14;4.85;;;4.45;;
8131;SDS011;4107;49.212;9.198;2022-07-29T11:08:40;5.72;;;5.00;;
8131;SDS011;4107;49.212;9.198;2022-07-29T11:11:30;5.43;;;4.00;;
8131;SDS011;4107;49.212;9.198;2022-07-29T11:13:56;4.88;;;4.35;;
8131;SDS011;4107;49.212;9.198;2022-07-29T11:16:22;7.28;;;4.40;;
8131;SDS011;4107;49.212;9.198;2022-07-29T11:21:35;9.63;;;5.65;;
8131;SDS011;4107;49.212;9.198;2022-07-29T11:32:19;4.85;;;4.32;;
8131;SDS011;4107;49.212;9.198;2022-07-29T11:34:46;6.32;;;4.75;;
8131;SDS011;4107;49.212;9.198;2022-07-29T11:37:16;7.15;;;4.60;;
8131;SDS011;4107;49.212;9.198;2022-07-29T11:44:56;6.65;;;5.20;;
8131;SDS011;4107;49.212;9.198;2022-07-29T11:47:22;6.60;;;4.65;;
8131;SDS011;4107;49.212;9.198;2022-07-29T11:49:52;5.82;;;4.75;;
8131;SDS011;4107;49.212;9.198;2022-07-29T11:52:19;7.57;;;5.43;;
8131;SDS011;4107;49.212;9.198;2022-07-29T11:54:46;6.38;;;4.88;;
8131;SDS011;4107;49.212;9.198;2022-07-29T11:57:14;8.57;;;5.00;;
8131;SDS011;4107;49.212;9.198;2022-07-29T11:59:43;5.47;;;4.90;;
8131;SDS011;4107;49.212;9.198;2022-07-29T12:02:10;6.70;;;4.78;;
8131;SDS011;4107;49.212;9.198;2022-07-29T12:07:14;6.30;;;4.47;;
8131;SDS011;4107;49.212;9.198;2022-07-29T12:09:47;5.38;;;4.85;;
8131;SDS011;4107;49.212;9.198;2022-07-29T12:12:15;6.38;;;4.45;;
8131;SDS011;4107;49.212;9.198;2022-07-29T12:14:41;4.30;;;3.90;;
8131;SDS011;4107;49.212;9.198;2022-07-29T12:17:24;5.47;;;4.22;;
8131;SDS011;4107;49.212;9.198;2022-07-29T12:19:54;6.05;;;4.75;;
8131;SDS011;4107;49.212;9.198;2022-07-29T12:22:24;6.00;;;4.80;;
8131;SDS011;4107;49.212;9.198;2022-07-29T12:25:10;5.15;;;4.65;;
8131;SDS011;4107;49.212;9.198;2022-07-29T12:27:37;5.60;;;4.00;;
8131;SDS011;4107;49.212;9.198;2022-07-29T12:30:07;5.18;;;3.92;;
8131;SDS011;4107;49.212;9.198;2022-07-29T12:32:34;6.45;;;4.05;;
8131;SDS011;4107;49.212;9.198;2022-07-29T12:35:11;4.40;;;4.10;;
8131;SDS011;4107;49.212;9.198;2022-07-29T12:37:43;10.40;;;3.67;;
8131;SDS011;4107;49.212;9.198;2022-07-29T12:40:10;5.97;;;4.05;;
8131;SDS011;4107;49.212;9.198;2022-07-29T12:42:38;5.10;;;4.35;;
8131;SDS011;4107;49.212;9.198;2022-07-29T12:45:04;8.35;;;4.18;;
8131;SDS011;4107;49.212;9.198;2022-07-29T12:47:31;4.32;;;3.92;;
8131;SDS011;4107;49.212;9.198;2022-07-29T12:50:10;4.60;;;4.20;;
8131;SDS011;4107;49.212;9.198;2022-07-29T12:52:40;10.40;;;4.03;;
8131;SDS011;4107;49.212;9.198;2022-07-29T12:55:06;6.43;;;3.90;;
8131;SDS011;4107;49.212;9.198;2022-07-29T12:57:32;5.30;;;3.63;;
8131;SDS011;4107;49.212;9.198;2022-07-29T13:00:11;6.28;;;3.40;;
8131;SDS011;4107;49.212;9.198;2022-07-29T13:02:38;9.80;;;3.65;;
8131;SDS011;4107;49.212;9.198;2022-07-29T13:05:06;5.72;;;3.65;;
8131;SDS011;4107;49.212;9.198;2022-07-29T13:07:33;4.35;;;3.40;;
8131;SDS011;4107;49.212;9.198;2022-07-29T13:10:20;5.85;;;3.28;;
8131;SDS011;4107;49.212;9.198;2022-07-29T13:13:05;5.57;;;3.63;;
8131;SDS011;4107;49.212;9.198;2022-07-29T13:15:34;3.53;;;3.22;;
8131;SDS011;4107;49.212;9.198;2022-07-29T13:18:04;3.10;;;2.80;;
8131;SDS011;4107;49.212;9.198;2022-07-29T13:20:50;4.88;;;3.15;;
8131;SDS011;4107;49.212;9.198;2022-07-29T13:23:16;4.40;;;3.80;;
8131;SDS011;4107;49.212;9.198;2022-07-29T13:25:41;4.50;;;3.47;;
8131;SDS011;4107;49.212;9.198;2022-07-29T13:28:07;5.55;;;3.47;;
8131;SDS011;4107;49.212;9.198;2022-07-29T13:30:32;6.30;;;3.20;;
8131;SDS011;4107;49.212;9.198;2022-07-29T13:32:58;4.05;;;3.55;;
8131;SDS011;4107;49.212;9.198;2022-07-29T13:35:24;3.45;;;3.15;;
8131;SDS011;4107;49.212;9.198;2022-07-29T13:37:49;4.68;;;3.03;;
8131;SDS011;4107;49.212;9.198;2022-07-29T13:40:15;6.40;;;3.30;;
8131;SDS011;4107;49.212;9.198;2022-07-29T13:42:41;5.53;;;3.20;;
8131;SDS011;4107;49.212;9.198;2022-07-29T13:45:07;3.70;;;3.40;;
8131;SDS011;4107;49.212;9.198;2022-07-29T13:47:34;5.22;;;3.20;;
8131;SDS011;4107;49.212;9.198;2022-07-29T13:50:00;4.72;;;3.40;;
8131;SDS011;4107;49.212;9.198;2022-07-29T13:52:26;4.85;;;3.40;;
8131;SDS011;4107;49.212;9.198;2022-07-29T13:54:52;4.03;;;2.95;;
8131;SDS011;4107;49.212;9.198;2022-07-29T13:57:18;9.65;;;3.40;;
8131;SDS011;4107;49.212;9.198;2022-07-29T13:59:44;8.55;;;3.20;;
8131;SDS011;4107;49.212;9.198;2022-07-29T14:02:10;4.07;;;3.63;;
8131;SDS011;4107;49.212;9.198;2022-07-29T14:04:37;6.50;;;3.20;;
8131;SDS011;4107;49.212;9.198;2022-07-29T14:07:12;5.55;;;3.33;;
8131;SDS011;4107;49.212;9.198;2022-07-29T14:09:38;7.72;;;3.10;;
8131;SDS011;4107;49.212;9.198;2022-07-29T14:12:04;7.80;;;3.92;;
8131;SDS011;4107;49.212;9.198;2022-07-29T14:14:29;4.00;;;3.50;;
8131;SDS011;4107;49.212;9.198;2022-07-29T14:16:57;5.03;;;3.33;;
8131;SDS011;4107;49.212;9.198;2022-07-29T14:19:23;6.38;;;3.15;;
8131;SDS011;4107;49.212;9.198;2022-07-29T14:21:55;3.80;;;3.00;;
8131;SDS011;4107;49.212;9.198;2022-07-29T14:24:20;5.25;;;3.25;;
8131;SDS011;4107;49.212;9.198;2022-07-29T14:26:46;3.88;;;3.30;;
8131;SDS011;4107;49.212;9.198;2022-07-29T14:29:12;6.85;;;3.17;;
8131;SDS011;4107;49.212;9.198;2022-07-29T14:31:37;5.82;;;3.10;;
8131;SDS011;4107;49.212;9.198;2022-07-29T14:34:03;3.75;;;3.35;;
8131;SDS011;4107;49.212;9.198;2022-07-29T14:36:35;3.72;;;2.78;;
8131;SDS011;4107;49.212;9.198;2022-07-29T14:39:00;3.45;;;3.03;;
8131;SDS011;4107;49.212;9.198;2022-07-29T14:41:26;4.13;;;3.17;;
8131;SDS011;4107;49.212;9.198;2022-07-29T14:43:53;5.47;;;3.78;;
8131;SDS011;4107;49.212;9.198;2022-07-29T14:46:19;3.42;;;3.08;;
8131;SDS011;4107;49.212;9.198;2022-07-29T14:48:54;5.35;;;4.40;;
8131;SDS011;4107;49.212;9.198;2022-07-29T14:51:20;3.53;;;3.20;;
8131;SDS011;4107;49.212;9.198;2022-07-29T14:53:45;7.05;;;3.83;;
8131;SDS011;4107;49.212;9.198;2022-07-29T14:56:11;6.82;;;3.85;;
8131;SDS011;4107;49.212;9.198;2022-07-29T14:58:37;4.25;;;3.85;;
8131;SDS011;4107;49.212;9.198;2022-07-29T15:01:02;5.15;;;3.28;;
8131;SDS011;4107;49.212;9.198;2022-07-29T15:03:37;3.63;;;3.30;;
8131;SDS011;4107;49.212;9.198;2022-07-29T15:06:05;4.85;;;3.53;;
8131;SDS011;4107;49.212;9.198;2022-07-29T15:08:38;5.15;;;3.20;;
8131;SDS011;4107;49.212;9.198;2022-07-29T15:11:04;5.10;;;3.13;;
8131;SDS011;4107;49.212;9.198;2022-07-29T15:13:29;4.90;;;3.28;;
8131;SDS011;4107;49.212;9.198;2022-07-29T15:16:05;5.80;;;3.78;;
8131;SDS011;4107;49.212;9.198;2022-07-29T15:18:30;5.47;;;3.20;;
8131;SDS011;4107;49.212;9.198;2022-07-29T15:20:56;2.60;;;2.40;;
8131;SDS011;4107;49.212;9.198;2022-07-29T15:23:22;4.07;;;2.50;;
8131;SDS011;4107;49.212;9.198;2022-07-29T15:25:47;3.33;;;2.45;;
8131;SDS011;4107;49.212;9.198;2022-07-29T15:28:19;4.03;;;2.50;;
8131;SDS011;4107;49.212;9.198;2022-07-29T15:30:45;5.45;;;2.75;;
8131;SDS011;4107;49.212;9.198;2022-07-29T15:33:10;5.07;;;2.72;;
8131;SDS011;4107;49.212;9.198;2022-07-29T15:35:37;3.13;;;2.42;;
8131;SDS011;4107;49.212;9.198;2022-07-29T15:38:03;7.18;;;3.13;;
8131;SDS011;4107;49.212;9.198;2022-07-29T15:40:29;6.03;;;2.92;;
8131;SDS011;4107;49.212;9.198;2022-07-29T15:42:58;5.00;;;2.70;;
8131;SDS011;4107;49.212;9.198;2022-07-29T15:45:40;5.07;;;2.80;;
8131;SDS011;4107;49.212;9.198;2022-07-29T15:48:39;5.15;;;2.80;;
8131;SDS011;4107;49.212;9.198;2022-07-29T15:51:04;3.47;;;2.47;;
8131;SDS011;4107;49.212;9.198;2022-07-29T15:53:30;2.55;;;2.35;;
8131;SDS011;4107;49.212;9.198;2022-07-29T15:55:56;2.50;;;2.30;;
8131;SDS011;4107;49.212;9.198;2022-07-29T15:58:21;3.38;;;2.60;;
8131;SDS011;4107;49.212;9.198;2022-07-29T16:00:47;3.13;;;2.60;;
8131;SDS011;4107;49.212;9.198;2022-07-29T16:03:13;3.88;;;2.75;;
8131;SDS011;4107;49.212;9.198;2022-07-29T16:05:41;6.95;;;2.38;;
8131;SDS011;4107;49.212;9.198;2022-07-29T16:08:07;8.02;;;2.72;;